Time;durP1;ratioP1;P1;durP2;ratioP2;P2;SDS_P1;SDS_P2;PMS_P1;PMS_P2;Temp;Humidity;BMP_temperature;BMP_pressure;BME280_temperature;BME280_humidity;BME280_pressure;Samples;Min_cycle;Max_cycle;Signal;HPM_P1;HPM_P2
2023/07/27 00:01:43;;;;;;;7.75;4.55;;;;;;;;;;5032587;28;20422;-79
2023/07/27 00:04:10;;;;;;;5.20;3.97;;;;;;;;;;5019204;28;20060;-79
2023/07/27 00:06:37;;;;;;;8.98;4.65;;;;;;;;;;5013354;28;20057;-79
2023/07/27 00:09:04;;;;;;;5.93;4.38;;;;;;;;;;5013448;28;20479;-79
2023/07/27 00:11:31;;;;;;;6.57;4.57;;;;;;;;;;5013358;28;20410;-79
2023/07/27 00:13:59;;;;;;;9.05;5.47;;;;;;;;;;5031941;28;20352;-79
2023/07/27 00:16:26;;;;;;;6.22;4.75;;;;;;;;;;5031965;28;20053;-79
2023/07/27 00:18:52;;;;;;;9.15;5.00;;;;;;;;;;5030858;28;20050;-80
2023/07/27 00:21:19;;;;;;;6.68;4.65;;;;;;;;;;5033060;28;20060;-80
2023/07/27 00:23:46;;;;;;;9.38;5.22;;;;;;;;;;5033067;28;20049;-79
2023/07/27 00:26:13;;;;;;;7.25;4.43;;;;;;;;;;5033156;28;20049;-80
2023/07/27 00:28:40;;;;;;;5.82;4.25;;;;;;;;;;5032893;28;20045;-79
2023/07/27 00:31:08;;;;;;;7.47;4.22;;;;;;;;;;5031282;28;20053;-79
2023/07/27 00:33:35;;;;;;;10.27;4.95;;;;;;;;;;5029944;28;20053;-80
2023/07/27 00:36:02;;;;;;;6.03;4.57;;;;;;;;;;5033102;28;20064;-79
2023/07/27 00:38:29;;;;;;;6.90;4.65;;;;;;;;;;5032917;28;20046;-79
2023/07/27 00:40:56;;;;;;;5.35;3.85;;;;;;;;;;5032977;28;20057;-80
2023/07/27 00:43:22;;;;;;;7.15;4.85;;;;;;;;;;5033205;28;20060;-80
2023/07/27 00:45:49;;;;;;;5.53;4.05;;;;;;;;;;5024941;28;20054;-79
2023/07/27 00:48:18;;;;;;;6.75;4.20;;;;;;;;;;5012994;28;20050;-80
2023/07/27 00:50:45;;;;;;;5.45;4.25;;;;;;;;;;5012172;28;20484;-80
2023/07/27 00:53:12;;;;;;;5.82;4.18;;;;;;;;;;5012357;28;20084;-80
2023/07/27 00:55:39;;;;;;;6.85;5.15;;;;;;;;;;5012701;28;20058;-80
2023/07/27 00:58:06;;;;;;;6.45;4.47;;;;;;;;;;5012540;28;20050;-80
2023/07/27 01:00:34;;;;;;;5.55;4.30;;;;;;;;;;5012557;28;20054;-80
2023/07/27 01:03:03;;;;;;;7.60;4.32;;;;;;;;;;5012701;28;20050;-80
2023/07/27 01:05:31;;;;;;;4.45;3.55;;;;;;;;;;5012671;28;20050;-79
2023/07/27 01:07:58;;;;;;;7.27;4.47;;;;;;;;;;5014473;28;20054;-80
2023/07/27 01:10:31;;;;;;;5.05;3.80;;;;;;;;;;5031768;28;20049;-79
2023/07/27 01:12:59;;;;;;;6.55;4.47;;;;;;;;;;5032411;28;20060;-79
2023/07/27 01:15:28;;;;;;;6.93;4.88;;;;;;;;;;5032057;28;20061;-80
2023/07/27 01:17:58;;;;;;;4.45;4.05;;;;;;;;;;5029885;28;20387;-80
2023/07/27 01:20:27;;;;;;;5.65;4.25;;;;;;;;;;5023600;28;20057;-80
2023/07/27 01:23:14;;;;;;;4.82;3.58;;;;;;;;;;5012541;28;20054;-80
2023/07/27 01:26:02;;;;;;;4.88;3.88;;;;;;;;;;5007490;28;20153;-80
2023/07/27 01:28:42;;;;;;;4.95;3.72;;;;;;;;;;5019126;28;20415;-79
2023/07/27 01:31:13;;;;;;;6.32;3.67;;;;;;;;;;5032012;28;20057;-80
2023/07/27 01:33:41;;;;;;;4.25;3.22;;;;;;;;;;5013118;28;20115;-79
2023/07/27 01:36:09;;;;;;;5.20;3.53;;;;;;;;;;5012064;28;20054;-80
2023/07/27 01:38:38;;;;;;;6.18;3.72;;;;;;;;;;5018188;28;20049;-80
2023/07/27 01:41:06;;;;;;;4.28;3.00;;;;;;;;;;5051593;28;20056;-80
2023/07/27 01:43:33;;;;;;;5.40;3.00;;;;;;;;;;5052620;28;20056;-80
2023/07/27 01:46:00;;;;;;;4.97;2.92;;;;;;;;;;5055333;28;20486;-80
2023/07/27 01:48:29;;;;;;;4.57;2.60;;;;;;;;;;5036538;28;20045;-79
2023/07/27 01:50:56;;;;;;;5.05;2.80;;;;;;;;;;5035733;28;20060;-80
2023/07/27 01:53:24;;;;;;;3.63;2.45;;;;;;;;;;5035268;28;20056;-80
2023/07/27 01:55:52;;;;;;;4.85;2.85;;;;;;;;;;5035328;28;20064;-80
2023/07/27 01:58:19;;;;;;;3.58;2.40;;;;;;;;;;5035043;28;20060;-80
2023/07/27 02:00:46;;;;;;;4.30;2.53;;;;;;;;;;5035448;28;20057;-80
2023/07/27 02:03:14;;;;;;;3.20;2.63;;;;;;;;;;5041592;28;20052;-80
2023/07/27 02:05:45;;;;;;;4.30;2.58;;;;;;;;;;5042509;28;20057;-80
2023/07/27 02:08:12;;;;;;;5.15;2.50;;;;;;;;;;5035429;28;20050;-80
2023/07/27 02:10:40;;;;;;;4.68;2.40;;;;;;;;;;5034904;28;20495;-79
2023/07/27 02:13:10;;;;;;;3.70;2.63;;;;;;;;;;5035491;28;20060;-79
2023/07/27 02:15:39;;;;;;;4.45;2.45;;;;;;;;;;5034842;28;20053;-80
2023/07/27 02:18:08;;;;;;;4.18;2.67;;;;;;;;;;5022982;28;20061;-79
2023/07/27 02:20:36;;;;;;;3.38;2.42;;;;;;;;;;5015067;28;20056;-79
2023/07/27 02:23:08;;;;;;;4.38;2.30;;;;;;;;;;5014907;28;20049;-80
2023/07/27 02:25:35;;;;;;;3.22;2.45;;;;;;;;;;5015263;28;20056;-80
2023/07/27 02:28:01;;;;;;;6.05;2.72;;;;;;;;;;5015043;28;20061;-80
2023/07/27 02:30:28;;;;;;;8.50;2.50;;;;;;;;;;5014668;28;20050;-79
2023/07/27 02:32:58;;;;;;;3.17;2.33;;;;;;;;;;5029459;28;20045;-80
2023/07/27 02:35:24;;;;;;;2.95;2.22;;;;;;;;;;5054310;28;20057;-80
2023/07/27 02:37:53;;;;;;;3.33;2.28;;;;;;;;;;5054765;28;20053;-80
2023/07/27 02:40:21;;;;;;;4.88;2.45;;;;;;;;;;5053870;28;20497;-80
2023/07/27 02:42:48;;;;;;;3.65;2.40;;;;;;;;;;5054077;28;20063;-80
2023/07/27 02:45:15;;;;;;;4.35;2.60;;;;;;;;;;5053721;28;20057;-80
2023/07/27 02:47:44;;;;;;;3.67;2.50;;;;;;;;;;5040073;28;20053;-80
2023/07/27 02:50:11;;;;;;;3.42;2.40;;;;;;;;;;5013839;28;20061;-80
2023/07/27 02:52:38;;;;;;;4.90;2.55;;;;;;;;;;5014375;28;20060;-80
2023/07/27 02:55:05;;;;;;;3.92;2.40;;;;;;;;;;5013391;28;20052;-80
2023/07/27 02:57:36;;;;;;;4.18;2.40;;;;;;;;;;5013994;28;20077;-80
2023/07/27 03:00:03;;;;;;;4.05;2.40;;;;;;;;;;5014018;28;20049;-80
2023/07/27 03:02:30;;;;;;;5.70;2.53;;;;;;;;;;5026129;28;20524;-80
2023/07/27 03:04:57;;;;;;;3.72;2.53;;;;;;;;;;5047337;28;20057;-80
2023/07/27 03:07:24;;;;;;;4.38;2.20;;;;;;;;;;5033868;28;20065;-80
2023/07/27 03:09:51;;;;;;;6.70;3.08;;;;;;;;;;5034181;28;20056;-80
2023/07/27 03:12:17;;;;;;;4.50;2.75;;;;;;;;;;5033348;28;20057;-80
2023/07/27 03:14:46;;;;;;;5.07;2.45;;;;;;;;;;5034022;28;20064;-80
2023/07/27 03:17:12;;;;;;;3.42;2.30;;;;;;;;;;5029091;28;20049;-80
2023/07/27 03:19:39;;;;;;;5.32;2.70;;;;;;;;;;5013967;28;20050;-80
2023/07/27 03:22:06;;;;;;;3.10;2.50;;;;;;;;;;5014171;28;20054;-80
2023/07/27 03:24:33;;;;;;;4.15;2.58;;;;;;;;;;5014127;28;20058;-80
2023/07/27 03:27:00;;;;;;;3.72;2.50;;;;;;;;;;5013874;28;20054;-80
2023/07/27 03:29:27;;;;;;;4.72;2.50;;;;;;;;;;5013409;28;20065;-81
2023/07/27 03:31:55;;;;;;;4.43;2.60;;;;;;;;;;5014556;28;20045;-80
2023/07/27 03:34:25;;;;;;;3.55;2.90;;;;;;;;;;5014230;28;20061;-80
2023/07/27 03:36:53;;;;;;;6.90;3.08;;;;;;;;;;5013799;28;20060;-80
2023/07/27 03:39:20;;;;;;;4.63;2.50;;;;;;;;;;5013537;28;20499;-80
2023/07/27 03:41:47;;;;;;;5.13;3.22;;;;;;;;;;5013164;28;20419;-80
2023/07/27 03:44:18;;;;;;;4.55;3.13;;;;;;;;;;5013242;28;20408;-81
2023/07/27 03:46:48;;;;;;;4.93;2.50;;;;;;;;;;5013463;28;20057;-80
2023/07/27 03:49:16;;;;;;;5.28;3.08;;;;;;;;;;5029900;28;20056;-80
2023/07/27 03:51:43;;;;;;;4.30;2.70;;;;;;;;;;5027035;28;20061;-80
2023/07/27 03:54:10;;;;;;;6.07;2.75;;;;;;;;;;5032901;28;20517;-81
2023/07/27 03:56:36;;;;;;;5.65;2.97;;;;;;;;;;5033219;28;20053;-80
2023/07/27 03:59:03;;;;;;;4.40;2.92;;;;;;;;;;5032869;28;20052;-80
2023/07/27 04:01:30;;;;;;;4.80;2.72;;;;;;;;;;5028279;28;20486;-80
2023/07/27 04:03:57;;;;;;;4.50;2.90;;;;;;;;;;5022573;28;20502;-80
2023/07/27 04:06:25;;;;;;;3.65;2.92;;;;;;;;;;5032990;28;20053;-80
2023/07/27 04:08:52;;;;;;;5.63;3.50;;;;;;;;;;5032427;28;20058;-80
2023/07/27 04:11:18;;;;;;;5.07;3.70;;;;;;;;;;5032792;28;20053;-80
2023/07/27 04:13:45;;;;;;;4.00;3.15;;;;;;;;;;5032221;28;20057;-80
2023/07/27 04:16:12;;;;;;;6.10;3.30;;;;;;;;;;5032847;28;20049;-80
2023/07/27 04:18:40;;;;;;;5.22;2.97;;;;;;;;;;5037459;28;20057;-80
2023/07/27 04:21:07;;;;;;;4.20;3.20;;;;;;;;;;5032717;28;20046;-80
2023/07/27 04:23:35;;;;;;;5.20;3.22;;;;;;;;;;5032623;28;20072;-80
2023/07/27 04:26:02;;;;;;;4.80;3.03;;;;;;;;;;5032742;28;20050;-80
2023/07/27 04:28:29;;;;;;;5.10;3.10;;;;;;;;;;5032401;28;20054;-80
2023/07/27 04:30:56;;;;;;;6.82;3.15;;;;;;;;;;5024828;28;20050;-80
2023/07/27 04:33:23;;;;;;;4.72;3.70;;;;;;;;;;5017788;28;20061;-80
2023/07/27 04:35:49;;;;;;;6.28;3.55;;;;;;;;;;5046842;28;20470;-80
2023/07/27 04:38:16;;;;;;;6.93;4.00;;;;;;;;;;5040724;28;20487;-77
2023/07/27 04:40:45;;;;;;;5.35;3.65;;;;;;;;;;5026749;28;20492;-78
2023/07/27 04:43:12;;;;;;;7.07;3.70;;;;;;;;;;5029576;28;20406;-76
2023/07/27 04:45:38;;;;;;;5.72;3.47;;;;;;;;;;5026372;28;20479;-76
2023/07/27 04:48:06;;;;;;;5.05;3.60;;;;;;;;;;5022484;28;20399;-76
2023/07/27 04:50:33;;;;;;;5.25;3.70;;;;;;;;;;5012491;28;20458;-77
2023/07/27 04:53:00;;;;;;;4.35;3.53;;;;;;;;;;5028639;28;20057;-78
2023/07/27 04:55:27;;;;;;;5.22;3.40;;;;;;;;;;5037680;28;20482;-76
2023/07/27 04:57:55;;;;;;;5.65;3.65;;;;;;;;;;5013427;28;20058;-76
2023/07/27 05:00:22;;;;;;;5.10;3.05;;;;;;;;;;5013218;28;20398;-77
2023/07/27 05:02:49;;;;;;;4.63;3.00;;;;;;;;;;5032867;28;20501;-77
2023/07/27 05:05:15;;;;;;;6.75;4.10;;;;;;;;;;5026320;28;20494;-76
2023/07/27 05:07:42;;;;;;;6.05;4.00;;;;;;;;;;5051593;28;20063;-76
2023/07/27 05:10:09;;;;;;;5.30;3.70;;;;;;;;;;5046924;28;20052;-76
2023/07/27 05:12:36;;;;;;;8.10;3.90;;;;;;;;;;5038575;28;20049;-75
2023/07/27 05:15:05;;;;;;;5.38;4.03;;;;;;;;;;5051522;28;20052;-75
2023/07/27 05:17:31;;;;;;;7.57;4.40;;;;;;;;;;5024396;28;20060;-77
2023/07/27 05:19:58;;;;;;;5.10;3.83;;;;;;;;;;5027149;28;20065;-77
2023/07/27 05:22:25;;;;;;;5.00;4.00;;;;;;;;;;5034597;28;20137;-76
2023/07/27 05:24:52;;;;;;;6.72;4.13;;;;;;;;;;5028879;28;20049;-77
2023/07/27 05:27:18;;;;;;;4.00;3.55;;;;;;;;;;5024779;28;20050;-76
2023/07/27 05:29:45;;;;;;;5.60;4.35;;;;;;;;;;5035516;28;20064;-82
2023/07/27 05:32:13;;;;;;;5.72;4.22;;;;;;;;;;5031494;28;20053;-82
2023/07/27 05:34:40;;;;;;;5.47;3.70;;;;;;;;;;5034138;28;20053;-82
2023/07/27 05:37:07;;;;;;;8.18;4.28;;;;;;;;;;5035215;28;20053;-82
2023/07/27 05:39:34;;;;;;;4.97;3.88;;;;;;;;;;5032871;28;20073;-83
2023/07/27 05:42:00;;;;;;;6.53;4.20;;;;;;;;;;5027918;28;20053;-82
2023/07/27 05:44:27;;;;;;;6.15;4.40;;;;;;;;;;5033690;28;20407;-82
2023/07/27 05:46:55;;;;;;;22.48;5.22;;;;;;;;;;5042612;28;20535;-82
2023/07/27 05:49:23;;;;;;;15.07;5.45;;;;;;;;;;5033448;28;20058;-82
2023/07/27 05:51:50;;;;;;;13.30;5.32;;;;;;;;;;5023712;28;20049;-81
2023/07/27 05:54:16;;;;;;;13.00;7.68;;;;;;;;;;5039821;28;20045;-81
2023/07/27 05:56:43;;;;;;;9.77;5.82;;;;;;;;;;5034197;28;20049;-81
2023/07/27 05:59:10;;;;;;;10.00;6.45;;;;;;;;;;5028847;28;20141;-82
2023/07/27 06:01:37;;;;;;;12.77;7.50;;;;;;;;;;5036659;28;20052;-81
2023/07/27 06:04:04;;;;;;;11.65;5.40;;;;;;;;;;5034185;28;20049;-80
2023/07/27 06:06:33;;;;;;;8.80;5.72;;;;;;;;;;5033923;28;20487;-80
2023/07/27 06:09:00;;;;;;;12.35;6.47;;;;;;;;;;5034121;28;20054;-81
2023/07/27 06:11:27;;;;;;;6.68;5.10;;;;;;;;;;5035005;28;20050;-80
2023/07/27 06:14:09;;;;;;;15.15;10.10;;;;;;;;;;5034376;28;20054;-81
2023/07/27 06:16:36;;;;;;;11.80;5.35;;;;;;;;;;5037946;28;20466;-79
2023/07/27 06:19:03;;;;;;;8.10;5.53;;;;;;;;;;5032700;28;20502;-79
2023/07/27 06:21:29;;;;;;;9.65;6.88;;;;;;;;;;5028007;28;20379;-78
2023/07/27 06:23:57;;;;;;;12.05;8.55;;;;;;;;;;5032247;28;20072;-77
2023/07/27 06:26:24;;;;;;;15.73;9.10;;;;;;;;;;5034370;28;20049;-77
2023/07/27 06:28:51;;;;;;;11.50;8.02;;;;;;;;;;5026468;28;20060;-77
2023/07/27 06:31:18;;;;;;;9.15;6.82;;;;;;;;;;5026213;28;20056;-77
2023/07/27 06:33:45;;;;;;;13.35;7.18;;;;;;;;;;5034627;28;20053;-77
2023/07/27 06:36:12;;;;;;;10.75;7.25;;;;;;;;;;5034641;28;20053;-77
2023/07/27 06:38:39;;;;;;;11.10;5.40;;;;;;;;;;5034697;28;20501;-78
2023/07/27 06:41:07;;;;;;;8.30;6.45;;;;;;;;;;5034046;28;20364;-78
2023/07/27 06:43:34;;;;;;;12.30;8.80;;;;;;;;;;5053488;28;20068;-78
2023/07/27 06:46:01;;;;;;;7.93;6.50;;;;;;;;;;5048051;28;20061;-78
2023/07/27 06:48:27;;;;;;;11.05;5.82;;;;;;;;;;5014284;28;20371;-78
2023/07/27 06:50:54;;;;;;;6.32;5.18;;;;;;;;;;5017433;28;20050;-78
2023/07/27 06:53:21;;;;;;;6.40;5.10;;;;;;;;;;5053563;28;20075;-79
2023/07/27 06:55:48;;;;;;;6.05;5.10;;;;;;;;;;5054015;28;20053;-79
2023/07/27 06:58:16;;;;;;;10.30;5.80;;;;;;;;;;5054095;28;20057;-79
2023/07/27 07:00:43;;;;;;;10.07;5.97;;;;;;;;;;5053455;28;20064;-78
2023/07/27 07:03:09;;;;;;;11.82;5.95;;;;;;;;;;5049751;28;20049;-79
2023/07/27 07:05:36;;;;;;;7.07;5.75;;;;;;;;;;5042241;28;20068;-79
2023/07/27 07:08:03;;;;;;;5.75;4.35;;;;;;;;;;5034068;28;20084;-80
2023/07/27 07:10:30;;;;;;;5.13;4.20;;;;;;;;;;5033777;28;20053;-80
2023/07/27 07:12:57;;;;;;;10.60;5.30;;;;;;;;;;5046477;28;20053;-80
2023/07/27 07:15:25;;;;;;;5.47;3.85;;;;;;;;;;5053158;28;20148;-79
2023/07/27 07:17:52;;;;;;;6.32;5.18;;;;;;;;;;5049086;28;20064;-81
2023/07/27 07:20:19;;;;;;;6.53;4.90;;;;;;;;;;5053300;28;20060;-80
2023/07/27 07:22:46;;;;;;;7.40;4.75;;;;;;;;;;5023320;28;20060;-80
2023/07/27 07:25:12;;;;;;;5.82;4.78;;;;;;;;;;5013728;28;20058;-80
2023/07/27 07:27:39;;;;;;;5.70;4.53;;;;;;;;;;5017150;28;20045;-80
2023/07/27 07:30:08;;;;;;;8.30;6.40;;;;;;;;;;5033632;28;20406;-80
2023/07/27 07:32:36;;;;;;;10.85;4.82;;;;;;;;;;5040888;28;20045;-79
2023/07/27 07:35:03;;;;;;;7.70;6.28;;;;;;;;;;5045715;28;20413;-80
2023/07/27 07:37:29;;;;;;;7.35;5.10;;;;;;;;;;5053143;28;20060;-79
2023/07/27 07:39:56;;;;;;;6.25;3.83;;;;;;;;;;5052742;28;20060;-80
2023/07/27 07:42:23;;;;;;;6.53;3.92;;;;;;;;;;5052333;28;20056;-80
2023/07/27 07:44:50;;;;;;;8.25;4.97;;;;;;;;;;5037077;28;20049;-79
2023/07/27 07:47:17;;;;;;;5.18;3.70;;;;;;;;;;5026585;28;20060;-79
2023/07/27 07:49:45;;;;;;;6.43;4.80;;;;;;;;;;5052456;28;20060;-79
2023/07/27 07:52:13;;;;;;;3.55;2.97;;;;;;;;;;5053001;28;20048;-80
2023/07/27 07:54:40;;;;;;;4.88;3.80;;;;;;;;;;5051383;28;20057;-80
2023/07/27 07:57:07;;;;;;;3.70;3.15;;;;;;;;;;5052987;28;20060;-80
2023/07/27 07:59:33;;;;;;;12.93;3.92;;;;;;;;;;5052492;28;20049;-79
2023/07/27 08:02:00;;;;;;;4.90;3.22;;;;;;;;;;5043541;28;20052;-80
2023/07/27 08:04:27;;;;;;;3.20;2.58;;;;;;;;;;5014735;28;20057;-80
2023/07/27 08:06:56;;;;;;;3.60;2.83;;;;;;;;;;5033161;28;20053;-79
2023/07/27 08:09:22;;;;;;;3.72;2.50;;;;;;;;;;5032772;28;20065;-80
2023/07/27 08:11:49;;;;;;;3.92;2.22;;;;;;;;;;5029771;28;20383;-79
2023/07/27 08:14:16;;;;;;;3.65;2.58;;;;;;;;;;5012990;28;20502;-80
2023/07/27 08:16:43;;;;;;;2.70;2.20;;;;;;;;;;5012655;28;20057;-80
2023/07/27 08:19:10;;;;;;;6.50;2.40;;;;;;;;;;5031901;28;20052;-80
2023/07/27 08:21:37;;;;;;;2.53;2.10;;;;;;;;;;5052576;28;20478;-80
2023/07/27 08:24:06;;;;;;;3.83;2.97;;;;;;;;;;5052223;28;20052;-80
2023/07/27 08:26:33;;;;;;;3.22;1.92;;;;;;;;;;5052553;28;20469;-80
2023/07/27 08:29:00;;;;;;;3.20;2.28;;;;;;;;;;5048254;28;20406;-80
2023/07/27 08:31:27;;;;;;;3.45;3.15;;;;;;;;;;5051720;28;20049;-80
2023/07/27 08:33:54;;;;;;;6.47;3.15;;;;;;;;;;5034337;28;20064;-79
2023/07/27 08:36:20;;;;;;;3.28;2.55;;;;;;;;;;5032756;28;20053;-80
2023/07/27 08:38:47;;;;;;;4.00;2.25;;;;;;;;;;5032392;28;20064;-80
2023/07/27 08:41:15;;;;;;;3.38;2.38;;;;;;;;;;5013107;28;20050;-79
2023/07/27 08:43:42;;;;;;;3.13;2.70;;;;;;;;;;5013006;28;20439;-80
2023/07/27 08:46:09;;;;;;;2.95;2.30;;;;;;;;;;5012600;28;20049;-80
2023/07/27 08:48:36;;;;;;;4.18;3.50;;;;;;;;;;5021396;28;20440;-80
2023/07/27 08:51:03;;;;;;;4.53;3.35;;;;;;;;;;5032278;28;20065;-80
2023/07/27 08:53:30;;;;;;;5.45;2.53;;;;;;;;;;5033363;28;20394;-80
2023/07/27 08:55:58;;;;;;;2.83;2.30;;;;;;;;;;5036377;28;20053;-80
2023/07/27 08:58:26;;;;;;;6.28;3.67;;;;;;;;;;5044631;28;20055;-79
2023/07/27 09:00:53;;;;;;;2.75;2.00;;;;;;;;;;5056348;28;20064;-80
2023/07/27 09:03:20;;;;;;;4.18;3.15;;;;;;;;;;5050746;28;20044;-80
2023/07/27 09:05:56;;;;;;;2.45;1.90;;;;;;;;;;5052597;28;20509;-80
2023/07/27 09:08:22;;;;;;;2.78;1.80;;;;;;;;;;5056076;28;20068;-80
2023/07/27 09:10:49;;;;;;;3.50;3.05;;;;;;;;;;5056042;28;20056;-80
2023/07/27 09:13:16;;;;;;;2.97;2.58;;;;;;;;;;5055854;28;20401;-80
2023/07/27 09:15:45;;;;;;;3.35;2.65;;;;;;;;;;5051605;28;20068;-80
2023/07/27 09:18:13;;;;;;;3.10;2.35;;;;;;;;;;5019266;28;20498;-80
2023/07/27 09:20:40;;;;;;;3.75;2.38;;;;;;;;;;5055862;28;20064;-80
2023/07/27 09:23:07;;;;;;;5.38;2.42;;;;;;;;;;5055796;28;20053;-80
2023/07/27 09:25:39;;;;;;;5.22;2.63;;;;;;;;;;5055583;28;20395;-80
2023/07/27 09:28:05;;;;;;;3.75;3.25;;;;;;;;;;5054531;28;20049;-80
2023/07/27 09:30:35;;;;;;;5.43;3.63;;;;;;;;;;5055421;28;20057;-80
2023/07/27 09:33:04;;;;;;;7.03;2.75;;;;;;;;;;5054523;28;20049;-80
2023/07/27 09:35:33;;;;;;;;;;;;;;;;;;5021832;28;20395;-81
2023/07/27 09:38:00;;;;;;;3.63;2.50;;;;;;;;;;5016067;28;19921;-80
2023/07/27 09:40:27;;;;;;;2.60;2.28;;;;;;;;;;5015835;28;20058;-80
2023/07/27 09:42:53;;;;;;;3.47;2.45;;;;;;;;;;5015917;28;20056;-80
2023/07/27 09:45:20;;;;;;;2.28;1.95;;;;;;;;;;5051592;28;20367;-80
2023/07/27 09:47:48;;;;;;;3.25;2.60;;;;;;;;;;5055499;28;20059;-80
2023/07/27 09:50:16;;;;;;;2.63;2.08;;;;;;;;;;5048510;28;20068;-80
2023/07/27 09:52:44;;;;;;;5.88;2.60;;;;;;;;;;5055115;28;20071;-80
2023/07/27 09:55:14;;;;;;;2.97;2.50;;;;;;;;;;5052024;28;20056;-80
2023/07/27 09:57:42;;;;;;;5.80;2.55;;;;;;;;;;5025791;28;20058;-80
2023/07/27 10:00:13;;;;;;;3.30;2.92;;;;;;;;;;5014566;28;20049;-80
2023/07/27 10:02:39;;;;;;;4.80;3.10;;;;;;;;;;5015547;28;20427;-79
2023/07/27 10:05:07;;;;;;;3.58;2.90;;;;;;;;;;5015966;28;20054;-80
2023/07/27 10:07:35;;;;;;;3.80;2.42;;;;;;;;;;5015595;28;20053;-81
2023/07/27 10:10:20;;;;;;;3.00;2.45;;;;;;;;;;5015050;28;20050;-80
2023/07/27 10:12:48;;;;;;;2.67;2.47;;;;;;;;;;5015248;28;20057;-80
2023/07/27 10:15:21;;;;;;;3.33;2.92;;;;;;;;;;5014751;28;20081;-80
2023/07/27 10:17:52;;;;;;;2.17;1.40;;;;;;;;;;5015332;28;20054;-80
2023/07/27 10:20:22;;;;;;;4.78;1.10;;;;;;;;;;5015355;28;20073;-80
2023/07/27 10:22:52;;;;;;;2.65;1.70;;;;;;;;;;5015094;28;20491;-80
2023/07/27 10:25:20;;;;;;;2.05;1.80;;;;;;;;;;5054967;28;20053;-80
2023/07/27 10:27:58;;;;;;;1.83;1.40;;;;;;;;;;5054323;28;20053;-80
2023/07/27 10:30:24;;;;;;;2.35;2.00;;;;;;;;;;5054746;28;20055;-80
2023/07/27 10:33:15;;;;;;;3.03;2.42;;;;;;;;;;5052593;28;20120;-80
2023/07/27 10:36:00;;;;;;;1.70;1.20;;;;;;;;;;5014898;28;20474;-80
2023/07/27 10:38:31;;;;;;;1.92;1.52;;;;;;;;;;5024000;28;20057;-80
2023/07/27 10:41:14;;;;;;;1.58;1.02;;;;;;;;;;5033528;28;20065;-80
2023/07/27 10:44:10;;;;;;;3.08;1.60;;;;;;;;;;5048659;28;20060;-81
2023/07/27 10:46:37;;;;;;;1.50;1.05;;;;;;;;;;4991785;28;20058;-80
2023/07/27 10:49:08;;;;;;;2.45;0.90;;;;;;;;;;5029671;28;20060;-81
2023/07/27 10:51:35;;;;;;;1.08;0.60;;;;;;;;;;5034580;28;20402;-80
2023/07/27 10:54:03;;;;;;;1.40;0.80;;;;;;;;;;5034388;28;20068;-80
2023/07/27 10:56:31;;;;;;;1.25;0.90;;;;;;;;;;5034686;28;20505;-81
2023/07/27 10:58:59;;;;;;;2.20;0.82;;;;;;;;;;5040056;28;20053;-80
2023/07/27 11:01:26;;;;;;;1.10;0.60;;;;;;;;;;5054045;28;20055;-81
2023/07/27 11:03:55;;;;;;;1.00;0.60;;;;;;;;;;5048610;28;20620;-80
2023/07/27 11:06:22;;;;;;;1.77;0.77;;;;;;;;;;5049456;28;20502;-80
2023/07/27 11:08:48;;;;;;;1.50;0.73;;;;;;;;;;5053495;28;20057;-81
2023/07/27 11:11:17;;;;;;;1.63;0.80;;;;;;;;;;5054176;28;20049;-81
2023/07/27 11:13:44;;;;;;;2.60;1.23;;;;;;;;;;5054010;28;20486;-81
2023/07/27 11:16:11;;;;;;;1.83;0.77;;;;;;;;;;5051424;28;20053;-80
2023/07/27 11:18:38;;;;;;;2.90;1.08;;;;;;;;;;5051050;28;20056;-80
2023/07/27 11:21:05;;;;;;;1.65;0.95;;;;;;;;;;5051682;28;20056;-81
2023/07/27 11:23:32;;;;;;;2.03;1.13;;;;;;;;;;5053819;28;20067;-78
2023/07/27 11:25:59;;;;;;;1.95;1.25;;;;;;;;;;5050553;28;20049;-77
2023/07/27 11:28:27;;;;;;;1.85;1.35;;;;;;;;;;5053569;28;20056;-77
2023/07/27 11:30:54;;;;;;;2.20;1.70;;;;;;;;;;5053118;28;20082;-77
2023/07/27 11:33:25;;;;;;;2.28;1.92;;;;;;;;;;5053032;28;20048;-77
2023/07/27 11:35:55;;;;;;;1.65;1.50;;;;;;;;;;5048278;28;20524;-77
2023/07/27 11:38:22;;;;;;;2.20;1.80;;;;;;;;;;5044970;28;20061;-77
2023/07/27 11:40:54;;;;;;;2.83;1.85;;;;;;;;;;5033406;28;20387;-77
2023/07/27 11:43:21;;;;;;;2.33;2.13;;;;;;;;;;5033063;28;20056;-77
2023/07/27 11:45:49;;;;;;;2.38;2.10;;;;;;;;;;5048494;28;20053;-77
2023/07/27 11:48:19;;;;;;;3.50;2.45;;;;;;;;;;5053207;28;20410;-77
2023/07/27 11:50:47;;;;;;;3.10;2.80;;;;;;;;;;5046607;28;20056;-76
2023/07/27 11:53:14;;;;;;;3.97;3.58;;;;;;;;;;5049474;28;20475;-77
2023/07/27 11:55:41;;;;;;;3.47;3.17;;;;;;;;;;5053048;28;20056;-77
2023/07/27 11:58:11;;;;;;;3.88;3.58;;;;;;;;;;5038453;28;20414;-78
2023/07/27 12:00:38;;;;;;;4.22;3.85;;;;;;;;;;5032924;28;20053;-77
2023/07/27 12:03:06;;;;;;;4.13;3.83;;;;;;;;;;5046088;28;20414;-77
2023/07/27 12:05:38;;;;;;;3.88;3.58;;;;;;;;;;5045846;28;20057;-77
2023/07/27 12:08:05;;;;;;;4.53;3.75;;;;;;;;;;5052512;28;20060;-77
2023/07/27 12:10:32;;;;;;;3.00;2.65;;;;;;;;;;5049163;28;20060;-77
2023/07/27 12:12:59;;;;;;;4.40;4.00;;;;;;;;;;5052195;28;20057;-77
2023/07/27 12:15:27;;;;;;;3.17;2.88;;;;;;;;;;5052210;28;20061;-77
2023/07/27 12:17:56;;;;;;;3.22;2.88;;;;;;;;;;5052727;28;20056;-76
2023/07/27 12:20:24;;;;;;;3.30;3.00;;;;;;;;;;5045174;28;20053;-78
2023/07/27 12:22:52;;;;;;;3.47;2.90;;;;;;;;;;5052201;28;20076;-77
2023/07/27 12:25:19;;;;;;;3.20;2.90;;;;;;;;;;5052594;28;20057;-77
2023/07/27 12:27:46;;;;;;;2.60;2.40;;;;;;;;;;5051962;28;20049;-77
2023/07/27 12:30:15;;;;;;;3.92;3.03;;;;;;;;;;5049549;28;20426;-77
2023/07/27 12:32:43;;;;;;;5.80;3.15;;;;;;;;;;5052597;28;20052;-77
2023/07/27 12:35:10;;;;;;;2.42;2.22;;;;;;;;;;5029965;28;20046;-77
2023/07/27 12:37:38;;;;;;;2.95;2.03;;;;;;;;;;5018812;28;20049;-77
2023/07/27 12:40:07;;;;;;;3.17;2.13;;;;;;;;;;5052040;28;20064;-77
2023/07/27 12:42:34;;;;;;;3.33;2.38;;;;;;;;;;5051949;28;20052;-77
2023/07/27 12:45:00;;;;;;;2.65;1.73;;;;;;;;;;5052084;28;20053;-78
2023/07/27 12:47:27;;;;;;;3.20;2.55;;;;;;;;;;5050164;28;20057;-77
2023/07/27 12:49:54;;;;;;;3.50;2.20;;;;;;;;;;5044585;28;20057;-77
2023/07/27 12:52:21;;;;;;;2.15;1.90;;;;;;;;;;5051827;28;20060;-77
2023/07/27 12:54:49;;;;;;;3.45;1.67;;;;;;;;;;5051669;28;20048;-77
2023/07/27 12:57:16;;;;;;;2.42;1.48;;;;;;;;;;5051441;28;20053;-77
2023/07/27 12:59:42;;;;;;;1.98;1.40;;;;;;;;;;5051724;28;20053;-76
2023/07/27 13:02:09;;;;;;;2.88;1.50;;;;;;;;;;5052116;28;20053;-77
2023/07/27 13:04:36;;;;;;;2.88;1.50;;;;;;;;;;5034017;28;20060;-77
2023/07/27 13:07:03;;;;;;;2.22;1.27;;;;;;;;;;5032522;28;20057;-76
2023/07/27 13:09:29;;;;;;;2.15;1.25;;;;;;;;;;5049091;28;20053;-76
2023/07/27 13:11:58;;;;;;;2.40;1.38;;;;;;;;;;5052086;28;20421;-77
2023/07/27 13:14:24;;;;;;;2.17;1.48;;;;;;;;;;5052032;28;20045;-76
2023/07/27 13:16:51;;;;;;;2.78;1.48;;;;;;;;;;5051922;28;20057;-77
2023/07/27 13:19:18;;;;;;;2.50;1.50;;;;;;;;;;5045109;28;20049;-78
2023/07/27 13:21:45;;;;;;;1.73;1.30;;;;;;;;;;5012375;28;20482;-76
2023/07/27 13:24:11;;;;;;;1.50;1.10;;;;;;;;;;5012305;28;20053;-76
2023/07/27 13:26:38;;;;;;;2.95;1.50;;;;;;;;;;5012815;28;20054;-77
2023/07/27 13:29:07;;;;;;;1.90;1.23;;;;;;;;;;5038498;28;20075;-77
2023/07/27 13:31:34;;;;;;;2.25;1.08;;;;;;;;;;5045702;28;20046;-77
2023/07/27 13:34:01;;;;;;;2.08;1.25;;;;;;;;;;5039208;28;20064;-77
2023/07/27 13:36:27;;;;;;;1.65;1.05;;;;;;;;;;5047863;28;20482;-78
2023/07/27 13:38:54;;;;;;;1.70;1.30;;;;;;;;;;5036569;28;20049;-77
2023/07/27 13:41:21;;;;;;;2.83;1.40;;;;;;;;;;5035528;28;20057;-77
2023/07/27 13:43:48;;;;;;;5.40;1.85;;;;;;;;;;5035652;28;20502;-77
2023/07/27 13:46:16;;;;;;;3.00;1.85;;;;;;;;;;5035370;28;20053;-76
2023/07/27 13:48:43;;;;;;;2.83;1.63;;;;;;;;;;5049088;28;20064;-77
2023/07/27 13:51:10;;;;;;;3.22;1.83;;;;;;;;;;5055801;28;20124;-77
2023/07/27 13:53:37;;;;;;;1.83;1.50;;;;;;;;;;5055179;28;20053;-77
2023/07/27 13:56:04;;;;;;;1.98;1.55;;;;;;;;;;5055240;28;20053;-76
2023/07/27 13:58:31;;;;;;;1.83;1.20;;;;;;;;;;5052058;28;20053;-77
2023/07/27 14:00:57;;;;;;;2.05;1.40;;;;;;;;;;5055127;28;20072;-77
2023/07/27 14:03:26;;;;;;;1.60;1.10;;;;;;;;;;5026804;28;20515;-76
2023/07/27 14:05:53;;;;;;;1.80;1.27;;;;;;;;;;5015235;28;20049;-76
2023/07/27 14:08:20;;;;;;;2.55;1.00;;;;;;;;;;5015026;28;20060;-76
2023/07/27 14:10:46;;;;;;;1.70;0.88;;;;;;;;;;5014954;28;20049;-77
2023/07/27 14:13:13;;;;;;;1.80;1.30;;;;;;;;;;5015236;28;20380;-76
2023/07/27 14:15:41;;;;;;;2.33;1.15;;;;;;;;;;5030187;28;20045;-76
2023/07/27 14:18:07;;;;;;;2.45;1.05;;;;;;;;;;5043489;28;20493;-76
2023/07/27 14:20:40;;;;;;;2.03;1.33;;;;;;;;;;5055091;28;20049;-82
2023/07/27 14:23:07;;;;;;;2.20;1.08;;;;;;;;;;5055564;28;20072;-81
2023/07/27 14:25:34;;;;;;;2.28;1.23;;;;;;;;;;5054462;28;20254;-81
2023/07/27 14:28:01;;;;;;;2.08;1.42;;;;;;;;;;5044190;28;20065;-81
2023/07/27 14:30:28;;;;;;;1.63;1.08;;;;;;;;;;5049069;28;20501;-81
2023/07/27 14:32:55;;;;;;;2.33;1.42;;;;;;;;;;5048260;28;20053;-81
2023/07/27 14:35:22;;;;;;;2.17;1.50;;;;;;;;;;5054250;28;20056;-81
2023/07/27 14:37:51;;;;;;;2.03;0.90;;;;;;;;;;5048953;28;20049;-81
2023/07/27 14:40:18;;;;;;;2.47;1.00;;;;;;;;;;5038992;28;20053;-81
2023/07/27 14:42:44;;;;;;;1.90;1.00;;;;;;;;;;5048116;28;20052;-82
2023/07/27 14:45:11;;;;;;;2.75;0.90;;;;;;;;;;5053891;28;20390;-81
2023/07/27 14:47:38;;;;;;;1.90;1.00;;;;;;;;;;5049607;28;20053;-81